createdAt,value
2022-11-29T00:00:08.947Z,102216.81
2022-11-29T00:02:44.546Z,102226.50
2022-11-29T00:05:19.090Z,102235.03
2022-11-29T00:07:54.087Z,102221.59
2022-11-29T00:10:23.635Z,102223.91
2022-11-29T00:12:52.814Z,102216.59
2022-11-29T00:15:22.126Z,102219.53
2022-11-29T00:17:53.548Z,102221.44
2022-11-29T00:20:22.975Z,102208.44
2022-11-29T00:22:52.144Z,102214.56
2022-11-29T00:25:21.424Z,102215.41
2022-11-29T00:27:51.109Z,102223.63
2022-11-29T00:30:25.527Z,102217.34
2022-11-29T00:32:56.962Z,102221.81
2022-11-29T00:35:26.273Z,102218.31
2022-11-29T00:37:55.598Z,102213.84
2022-11-29T00:40:25.030Z,102209.59
2022-11-29T00:42:54.299Z,102198.94
2022-11-29T00:45:23.574Z,102139.41
2022-11-29T00:47:53.056Z,102208.81
2022-11-29T00:50:24.367Z,102213.31
2022-11-29T00:52:53.651Z,102206.88
2022-11-29T00:55:22.878Z,102208.28
2022-11-29T00:57:57.318Z,102203.97
2022-11-29T01:00:31.695Z,102207.66
2022-11-29T01:03:01.170Z,102209.97
2022-11-29T01:05:33.128Z,102203.16
2022-11-29T01:08:02.081Z,102205.13
2022-11-29T01:10:31.393Z,102210.28
2022-11-29T01:13:00.701Z,102208.16
2022-11-29T01:15:30.362Z,102206.53
2022-11-29T01:18:10.240Z,102191.75
2022-11-29T01:20:41.660Z,102200.50
2022-11-29T01:23:11.575Z,102207.06
2022-11-29T01:25:40.795Z,102211.56
2022-11-29T01:28:15.097Z,102203.66
2022-11-29T01:30:46.179Z,102199.75
2022-11-29T01:33:15.794Z,102190.72
2022-11-29T01:35:51.706Z,102194.16
2022-11-29T01:38:31.068Z,102199.34
2022-11-29T01:41:02.488Z,102195.63
2022-11-29T01:43:32.333Z,102188.50
2022-11-29T01:48:37.014Z,102207.97
2022-11-29T01:51:08.424Z,102211.34
2022-11-29T01:53:42.938Z,102170.50
2022-11-29T01:56:15.821Z,102206.91
2022-11-29T01:58:51.301Z,102208.09
2022-11-29T02:01:21.841Z,102207.53
2022-11-29T02:03:56.463Z,102216.53
2022-11-29T02:06:28.310Z,102210.22
2022-11-29T02:08:58.241Z,102206.84
2022-11-29T02:11:50.489Z,102203.50
2022-11-29T02:14:38.981Z,102213.28
2022-11-29T02:17:21.088Z,102192.53
2022-11-29T02:20:34.967Z,102220.66
2022-11-29T02:23:23.001Z,102203.72
2022-11-29T02:26:13.370Z,102212.53
2022-11-29T02:29:18.467Z,102200.94
2022-11-29T02:32:19.238Z,102193.97
2022-11-29T02:35:00.188Z,102218.41
2022-11-29T02:37:58.885Z,102206.53
2022-11-29T02:43:52.823Z,102197.06
2022-11-29T02:46:30.299Z,102215.88
2022-11-29T02:49:10.091Z,102211.38
2022-11-29T02:51:54.185Z,102217.09
2022-11-29T02:54:29.857Z,102219.28
2022-11-29T02:57:02.073Z,102182.28
2022-11-29T02:59:49.540Z,102216.91
2022-11-29T03:02:33.527Z,102227.06
2022-11-29T03:05:14.877Z,102224.06
2022-11-29T03:07:57.593Z,102203.78
2022-11-29T03:10:37.039Z,102224.53
2022-11-29T03:13:16.066Z,102220.53
2022-11-29T03:15:53.325Z,102199.22
2022-11-29T03:18:35.934Z,102216.91
2022-11-29T03:21:25.245Z,102220.47
2022-11-29T03:24:02.223Z,102202.72
2022-11-29T03:26:38.624Z,102223.19
2022-11-29T03:29:14.090Z,102212.97
2022-11-29T03:31:50.574Z,102212.38
2022-11-29T03:34:31.916Z,102216.56
2022-11-29T03:37:08.124Z,102214.84
2022-11-29T03:39:49.562Z,102203.34
2022-11-29T03:42:31.992Z,102214.38
2022-11-29T03:45:07.631Z,102184.16
2022-11-29T03:47:42.010Z,102227.81
2022-11-29T03:50:18.125Z,102226.94
2022-11-29T03:52:52.212Z,102232.06
2022-11-29T03:55:39.905Z,102230.84
2022-11-29T03:58:23.634Z,102203.59
2022-11-29T04:01:17.339Z,102193.78
2022-11-29T04:04:14.325Z,102235.56
2022-11-29T04:06:56.935Z,102235.84
2022-11-29T04:09:53.050Z,102238.97
2022-11-29T04:12:56.986Z,102246.59
2022-11-29T04:15:58.999Z,102251.09
2022-11-29T04:18:55.930Z,102232.34
2022-11-29T04:21:33.452Z,102247.97
2022-11-29T04:24:32.991Z,102251.22
2022-11-29T04:27:37.952Z,102253.72
2022-11-29T04:30:15.832Z,102251.84
2022-11-29T04:33:08.557Z,102243.28
2022-11-29T04:36:08.259Z,102247.13
2022-11-29T04:39:20.608Z,102248.59
2022-11-29T04:42:22.170Z,102265.25
2022-11-29T04:45:08.797Z,102254.09
2022-11-29T04:48:01.390Z,102262.66
2022-11-29T04:50:48.841Z,102259.28
2022-11-29T04:53:41.193Z,102265.31
2022-11-29T04:56:18.087Z,102269.34
2022-11-29T04:59:01.669Z,102272.69
2022-11-29T05:01:43.655Z,102273.94
2022-11-29T05:04:21.271Z,102277.47
2022-11-29T05:07:01.094Z,102272.19
2022-11-29T05:09:39.668Z,102284.28
2022-11-29T05:12:22.886Z,102285.88
2022-11-29T05:15:11.833Z,102299.56
2022-11-29T05:17:49.841Z,102304.63
2022-11-29T05:20:35.456Z,102299.59
2022-11-29T05:23:31.384Z,102293.53
2022-11-29T05:26:06.577Z,102303.72
2022-11-29T05:28:52.822Z,102306.94
2022-11-29T05:31:32.869Z,102317.00
2022-11-29T05:37:21.745Z,102307.88
2022-11-29T05:40:05.320Z,102334.44
2022-11-29T05:42:53.360Z,102325.09
2022-11-29T05:45:27.619Z,102324.25
2022-11-29T05:48:10.981Z,102318.44
2022-11-29T05:50:44.827Z,102334.03
2022-11-29T05:53:23.463Z,102328.69
2022-11-29T05:56:01.153Z,102313.84
2022-11-29T05:58:41.216Z,102328.50
2022-11-29T06:01:24.297Z,102332.06
2022-11-29T06:04:00.751Z,102334.31
2022-11-29T06:06:41.233Z,102337.41
2022-11-29T06:09:23.629Z,102323.56
2022-11-29T06:11:57.557Z,102321.56
2022-11-29T06:14:47.776Z,102330.56
2022-11-29T06:17:44.153Z,102336.06
2022-11-29T06:20:43.631Z,102339.94
2022-11-29T06:23:28.714Z,102315.34
2022-11-29T06:26:13.237Z,102348.88
2022-11-29T06:29:01.291Z,102353.91
2022-11-29T06:31:43.087Z,102364.00
2022-11-29T06:34:30.513Z,102355.81
2022-11-29T06:37:05.288Z,102355.25
2022-11-29T06:39:40.302Z,102365.91
2022-11-29T06:42:11.541Z,102370.50
2022-11-29T06:44:43.113Z,102351.56
2022-11-29T06:47:20.545Z,102375.25
2022-11-29T06:49:53.666Z,102366.19
2022-11-29T06:52:33.728Z,102365.03
2022-11-29T06:55:16.476Z,102366.97
2022-11-29T06:58:09.249Z,102374.97
2022-11-29T07:00:52.351Z,102357.16
2022-11-29T07:03:37.941Z,102363.50
2022-11-29T07:06:18.029Z,102353.72
2022-11-29T07:08:49.224Z,102358.59
2022-11-29T07:11:19.182Z,102375.22
2022-11-29T07:13:51.138Z,102373.03
2022-11-29T07:16:27.802Z,102377.91
2022-11-29T07:19:05.756Z,102370.50
2022-11-29T07:21:48.050Z,102348.69
2022-11-29T07:24:33.272Z,102360.69
2022-11-29T07:27:13.641Z,102379.03
2022-11-29T07:29:51.139Z,102376.41
2022-11-29T07:32:28.625Z,102381.13
2022-11-29T07:35:06.907Z,102356.38
2022-11-29T07:37:57.655Z,102380.09
2022-11-29T07:40:37.374Z,102374.78
2022-11-29T07:43:21.829Z,102369.88
2022-11-29T07:45:53.873Z,102375.09
2022-11-29T07:48:23.084Z,102380.25
2022-11-29T07:50:52.285Z,102380.50
2022-11-29T07:53:28.715Z,102381.25
2022-11-29T07:56:03.016Z,102379.34
2022-11-29T07:58:32.230Z,102384.56
2022-11-29T08:01:03.574Z,102382.16
2022-11-29T08:03:35.016Z,102380.09
2022-11-29T08:06:05.549Z,102369.28
2022-11-29T08:08:40.685Z,102385.75
2022-11-29T08:11:13.297Z,102386.16
2022-11-29T08:13:42.779Z,102371.56
2022-11-29T08:16:30.729Z,102379.22
2022-11-29T08:19:00.495Z,102371.31
2022-11-29T08:21:29.736Z,102375.63
2022-11-29T08:23:58.994Z,102378.59
2022-11-29T08:26:31.672Z,102388.19
2022-11-29T08:29:01.285Z,102380.00
2022-11-29T08:31:34.216Z,102386.16
2022-11-29T08:34:03.526Z,102384.41
2022-11-29T08:36:32.632Z,102389.06
2022-11-29T08:39:09.570Z,102378.03
2022-11-29T08:41:39.154Z,102358.25
2022-11-29T08:44:10.115Z,102361.91
2022-11-29T08:46:54.151Z,102375.38
2022-11-29T08:49:23.717Z,102370.81
2022-11-29T08:52:14.000Z,102373.06
2022-11-29T08:54:41.404Z,102339.28
2022-11-29T08:57:38.763Z,102349.75
2022-11-29T09:00:00.020Z,102377.63
2022-11-29T09:02:31.087Z,102382.16
2022-11-29T09:05:05.760Z,102378.09
2022-11-29T09:07:35.510Z,102372.84
2022-11-29T09:10:12.554Z,102375.66
2022-11-29T09:12:44.017Z,102367.31
2022-11-29T09:15:14.490Z,102377.09
2022-11-29T09:17:52.425Z,102374.22
2022-11-29T09:20:21.803Z,102369.81
2022-11-29T09:22:51.039Z,102358.34
2022-11-29T09:25:25.368Z,102376.66
2022-11-29T09:27:54.569Z,102383.97
2022-11-29T09:30:24.058Z,102379.59
2022-11-29T09:33:00.353Z,102383.56
2022-11-29T09:35:29.673Z,102379.06
2022-11-29T09:37:58.874Z,102373.00
2022-11-29T09:40:35.591Z,102383.34
2022-11-29T09:43:09.936Z,102384.78
2022-11-29T09:45:44.325Z,102367.66
2022-11-29T09:48:34.096Z,102370.66
2022-11-29T09:51:12.814Z,102369.78
2022-11-29T09:53:57.767Z,102372.38
2022-11-29T09:56:38.628Z,102359.44
2022-11-29T09:59:13.280Z,102372.38
2022-11-29T10:01:48.487Z,102314.63
2022-11-29T10:04:23.422Z,102365.06
2022-11-29T10:07:04.585Z,102356.09
2022-11-29T10:09:44.166Z,102366.28
2022-11-29T10:12:19.475Z,102366.56
2022-11-29T10:14:56.067Z,102349.50
2022-11-29T10:17:35.089Z,102347.56
2022-11-29T10:20:15.070Z,102357.56
2022-11-29T10:22:53.633Z,102360.25
2022-11-29T10:25:32.659Z,102355.94
2022-11-29T10:28:11.306Z,102366.81
2022-11-29T10:30:46.734Z,102366.41
2022-11-29T10:33:22.146Z,102328.38
2022-11-29T10:35:58.917Z,102365.56
2022-11-29T10:38:33.358Z,102360.34
2022-11-29T10:41:08.950Z,102360.34
2022-11-29T10:43:39.185Z,102339.31
2022-11-29T10:46:17.133Z,102362.56
2022-11-29T10:48:51.820Z,102361.59
2022-11-29T10:51:23.347Z,102359.53
2022-11-29T10:54:03.619Z,102358.59
2022-11-29T10:56:37.317Z,102314.91
2022-11-29T10:59:08.622Z,102315.34
2022-11-29T11:01:40.803Z,102360.38
2022-11-29T11:04:19.358Z,102325.25
2022-11-29T11:06:52.313Z,102358.72
2022-11-29T11:09:24.744Z,102357.53
2022-11-29T11:11:55.996Z,102358.13
2022-11-29T11:14:30.691Z,102336.66
2022-11-29T11:17:16.975Z,102362.72
2022-11-29T11:19:57.955Z,102339.31
2022-11-29T11:22:32.151Z,102355.03
2022-11-29T11:25:29.440Z,102352.22
2022-11-29T11:28:13.195Z,102357.59
2022-11-29T11:30:42.946Z,102356.69
2022-11-29T11:33:21.322Z,102358.72
2022-11-29T11:36:13.940Z,102358.56
2022-11-29T11:38:55.153Z,102365.69
2022-11-29T11:41:49.406Z,102361.25
2022-11-29T11:44:58.111Z,102358.59
2022-11-29T11:47:19.775Z,102359.38
2022-11-29T11:49:51.872Z,102353.91
2022-11-29T11:52:25.254Z,102361.91
2022-11-29T11:54:59.838Z,102365.75
2022-11-29T11:57:34.384Z,102362.50
2022-11-29T12:01:02.540Z,102359.22
2022-11-29T12:03:33.427Z,102365.69
2022-11-29T12:06:21.403Z,102356.50
2022-11-29T12:08:53.007Z,102361.25
2022-11-29T12:11:26.067Z,102369.03
2022-11-29T12:14:00.500Z,102380.13
2022-11-29T12:16:36.252Z,102366.88
2022-11-29T12:19:13.996Z,102369.34
2022-11-29T12:21:52.010Z,102374.06
2022-11-29T12:24:32.165Z,102371.81
2022-11-29T12:27:06.979Z,102369.56
2022-11-29T12:29:37.483Z,102369.88
2022-11-29T12:32:22.403Z,102376.22
2022-11-29T12:35:18.742Z,102357.16
2022-11-29T12:37:57.566Z,102381.88
2022-11-29T12:40:35.690Z,102385.41
2022-11-29T12:43:17.344Z,102380.97
2022-11-29T12:46:02.270Z,102380.69
2022-11-29T12:55:25.558Z,102389.25
2022-11-29T12:58:08.929Z,102380.91
2022-11-29T13:00:43.940Z,102331.03
2022-11-29T13:03:23.311Z,102400.34
2022-11-29T13:06:23.578Z,102392.72
2022-11-29T13:09:13.625Z,102388.59
2022-11-29T13:11:55.059Z,102375.31
2022-11-29T13:14:48.714Z,102392.06
2022-11-29T13:17:30.888Z,102386.09
2022-11-29T13:20:07.339Z,102361.78
2022-11-29T13:25:35.582Z,102387.22
2022-11-29T13:28:21.552Z,102397.41
2022-11-29T13:30:51.951Z,102395.00
2022-11-29T13:33:41.774Z,102395.47
2022-11-29T13:36:24.490Z,102391.44
2022-11-29T13:39:02.817Z,102384.72
2022-11-29T13:41:36.930Z,102396.22
2022-11-29T13:44:22.894Z,102390.59
2022-11-29T13:47:04.489Z,102397.03
2022-11-29T13:49:52.448Z,102394.97
2022-11-29T13:52:33.995Z,102395.38
2022-11-29T13:55:18.245Z,102391.34
2022-11-29T14:00:53.813Z,102383.97
2022-11-29T14:03:32.527Z,102395.22
2022-11-29T14:06:18.314Z,102374.06
2022-11-29T14:09:18.781Z,102391.69
2022-11-29T14:14:53.915Z,102394.19
2022-11-29T14:17:49.900Z,102388.84
2022-11-29T14:20:46.609Z,102399.94
2022-11-29T14:23:18.065Z,102389.03
2022-11-29T14:26:23.723Z,102385.78
2022-11-29T14:28:56.237Z,102380.94
2022-11-29T14:31:58.481Z,102383.44
2022-11-29T14:34:44.211Z,102389.03
2022-11-29T14:37:42.237Z,102384.00
2022-11-29T14:40:25.278Z,102379.22
2022-11-29T14:42:55.508Z,102386.34
2022-11-29T14:45:28.231Z,102385.81
2022-11-29T14:47:58.314Z,102371.19
2022-11-29T14:50:38.379Z,102390.09
2022-11-29T14:53:27.396Z,102383.69
2022-11-29T14:59:39.352Z,102376.31
2022-11-29T15:02:20.099Z,102396.28
2022-11-29T15:04:53.097Z,102398.41
2022-11-29T15:07:29.053Z,102386.78
2022-11-29T15:10:02.617Z,102391.25
2022-11-29T15:12:38.900Z,102379.47
2022-11-29T15:15:31.886Z,102387.69
2022-11-29T15:21:09.422Z,102399.38
2022-11-29T15:23:45.497Z,102383.44
2022-11-29T15:26:21.223Z,102388.69
2022-11-29T15:28:50.989Z,102391.59
2022-11-29T15:31:22.786Z,102392.56
2022-11-29T15:33:57.687Z,102390.78
2022-11-29T15:36:30.122Z,102390.44
2022-11-29T15:39:01.793Z,102374.22
2022-11-29T15:41:33.743Z,102395.78
2022-11-29T15:44:06.408Z,102398.28
2022-11-29T15:46:37.585Z,102393.63
2022-11-29T15:49:23.437Z,102366.66
2022-11-29T15:51:58.509Z,102335.13
2022-11-29T15:54:35.793Z,102394.00
2022-11-29T15:57:11.819Z,102394.00
2022-11-29T15:59:45.654Z,102382.09
2022-11-29T16:02:21.561Z,102389.75
2022-11-29T16:04:59.016Z,102387.75
2022-11-29T16:07:32.193Z,102368.53
2022-11-29T16:10:10.116Z,102380.41
2022-11-29T16:12:53.842Z,102381.13
2022-11-29T16:18:15.213Z,102372.66
2022-11-29T16:20:45.157Z,102326.09
2022-11-29T16:23:16.715Z,102387.69
2022-11-29T16:26:01.598Z,102381.97
2022-11-29T16:33:48.623Z,102382.19
2022-11-29T16:36:21.828Z,102377.34
2022-11-29T16:38:54.255Z,102379.19
2022-11-29T16:41:32.203Z,102372.19
2022-11-29T16:44:05.039Z,102381.31
2022-11-29T16:46:39.632Z,102382.72
2022-11-29T16:49:34.562Z,102377.19
2022-11-29T16:52:26.614Z,102382.16
2022-11-29T16:54:57.388Z,102378.06
2022-11-29T16:57:30.775Z,102349.56
2022-11-29T17:00:14.943Z,102385.22
2022-11-29T17:02:45.931Z,102360.78
2022-11-29T17:05:19.258Z,102377.72
2022-11-29T17:07:50.756Z,102380.53
2022-11-29T17:10:24.590Z,102374.47
2022-11-29T17:12:55.938Z,102388.03
2022-11-29T17:15:30.878Z,102393.19
2022-11-29T17:18:01.581Z,102385.84
2022-11-29T17:20:31.804Z,102382.63
2022-11-29T17:23:01.181Z,102374.78
2022-11-29T17:25:30.595Z,102374.94
2022-11-29T17:28:02.482Z,102371.25
2022-11-29T17:30:31.893Z,102387.63
2022-11-29T17:33:02.629Z,102370.50
2022-11-29T17:35:32.219Z,102388.66
2022-11-29T17:38:13.315Z,102390.09
2022-11-29T17:40:42.963Z,102370.81
2022-11-29T17:43:14.553Z,102380.63
2022-11-29T17:45:45.071Z,102335.34
2022-11-29T17:48:14.569Z,102379.06
2022-11-29T17:50:44.295Z,102383.34
2022-11-29T17:53:14.038Z,102381.06
2022-11-29T17:55:48.639Z,102380.38
2022-11-29T17:58:20.297Z,102343.22
2022-11-29T18:00:49.317Z,102393.53
2022-11-29T18:03:23.554Z,102384.59
2022-11-29T18:05:52.887Z,102396.03
2022-11-29T18:08:22.061Z,102389.94
2022-11-29T18:13:30.033Z,102396.03
2022-11-29T18:16:04.536Z,102399.41
2022-11-29T18:18:33.813Z,102385.28
2022-11-29T18:21:04.785Z,102396.03
2022-11-29T18:23:34.851Z,102369.66
2022-11-29T18:26:06.396Z,102397.44
2022-11-29T18:28:40.906Z,102401.06
2022-11-29T18:31:15.201Z,102399.97
2022-11-29T18:33:46.453Z,102403.56
2022-11-29T18:36:17.507Z,102410.00
2022-11-29T18:38:47.749Z,102407.53
2022-11-29T18:41:19.397Z,102409.81
2022-11-29T18:43:50.692Z,102405.00
2022-11-29T18:46:21.628Z,102399.28
2022-11-29T18:49:01.157Z,102395.75
2022-11-29T18:51:31.847Z,102395.03
2022-11-29T18:54:01.826Z,102392.84
2022-11-29T18:56:37.477Z,102397.53
2022-11-29T18:59:10.683Z,102389.13
2022-11-29T19:01:42.935Z,102377.91
2022-11-29T19:04:14.259Z,102370.94
2022-11-29T19:06:49.418Z,102377.16
2022-11-29T19:09:21.488Z,102364.84
2022-11-29T19:11:55.992Z,102385.75
2022-11-29T19:14:27.447Z,102383.63
2022-11-29T19:16:56.639Z,102391.28
2022-11-29T19:19:25.795Z,102374.69
2022-11-29T19:21:55.300Z,102395.78
2022-11-29T19:24:24.866Z,102372.91
2022-11-29T19:26:55.384Z,102389.66
2022-11-29T19:29:26.612Z,102392.19
2022-11-29T19:31:55.844Z,102393.44
2022-11-29T19:34:27.417Z,102360.25
2022-11-29T19:36:56.352Z,102385.25
2022-11-29T19:39:28.908Z,102389.19
2022-11-29T19:41:58.266Z,102390.25
2022-11-29T19:44:30.204Z,102395.13
2022-11-29T19:47:03.723Z,102374.03
2022-11-29T19:49:33.125Z,102401.88
2022-11-29T19:52:02.811Z,102380.13
2022-11-29T19:54:32.323Z,102402.97
2022-11-29T19:57:02.141Z,102390.13
2022-11-29T19:59:33.349Z,102399.41
2022-11-29T20:02:02.644Z,102381.53
2022-11-29T20:04:31.835Z,102401.53
2022-11-29T20:07:01.102Z,102402.44
2022-11-29T20:09:30.332Z,102404.03
2022-11-29T20:11:59.652Z,102371.75
2022-11-29T20:14:28.793Z,102409.38
2022-11-29T20:17:00.084Z,102405.13
2022-11-29T20:19:29.670Z,102401.34
2022-11-29T20:21:58.994Z,102405.50
2022-11-29T20:24:28.325Z,102395.13
2022-11-29T20:26:57.560Z,102407.44
2022-11-29T20:29:30.289Z,102407.06
2022-11-29T20:32:01.485Z,102410.50
2022-11-29T20:34:38.242Z,102350.84
2022-11-29T20:37:16.868Z,102400.31
2022-11-29T20:39:57.031Z,102380.16
2022-11-29T20:42:43.931Z,102401.91
2022-11-29T20:45:15.916Z,102398.34
2022-11-29T20:47:52.740Z,102396.03
2022-11-29T20:50:24.261Z,102397.47
2022-11-29T20:53:05.599Z,102392.28
2022-11-29T20:55:47.743Z,102399.22
2022-11-29T20:58:18.988Z,102351.97
2022-11-29T21:00:48.602Z,102408.38
2022-11-29T21:03:20.657Z,102396.56
2022-11-29T21:05:50.823Z,102410.34
2022-11-29T21:08:22.033Z,102396.03
2022-11-29T21:10:56.586Z,102388.72
2022-11-29T21:13:27.593Z,102386.59
2022-11-29T21:16:02.529Z,102363.94
2022-11-29T21:18:34.951Z,102410.69
2022-11-29T21:21:25.800Z,102414.09
2022-11-29T21:24:02.879Z,102414.66
2022-11-29T21:26:41.560Z,102415.53
2022-11-29T21:29:19.193Z,102413.91
2022-11-29T21:31:51.330Z,102415.53
2022-11-29T21:34:23.342Z,102410.88
2022-11-29T21:36:58.437Z,102424.66
2022-11-29T21:39:33.809Z,102425.91
2022-11-29T21:42:03.402Z,102426.81
2022-11-29T21:44:32.591Z,102429.50
2022-11-29T21:47:01.898Z,102428.97
2022-11-29T21:49:33.108Z,102426.63
2022-11-29T21:52:02.831Z,102420.19
2022-11-29T21:54:32.323Z,102404.81
2022-11-29T21:57:02.331Z,102421.63
2022-11-29T21:59:31.799Z,102420.34
2022-11-29T22:02:01.805Z,102415.75
2022-11-29T22:04:33.119Z,102418.03
2022-11-29T22:07:02.438Z,102420.00
2022-11-29T22:09:31.585Z,102395.91
2022-11-29T22:12:06.619Z,102423.03
2022-11-29T22:14:48.928Z,102423.03
2022-11-29T22:17:18.084Z,102433.78
2022-11-29T22:19:49.170Z,102418.03
2022-11-29T22:24:53.628Z,102418.78
2022-11-29T22:27:22.882Z,102418.25
2022-11-29T22:29:52.194Z,102415.19
2022-11-29T22:32:21.428Z,102418.78
2022-11-29T22:34:52.457Z,102401.59
2022-11-29T22:37:21.773Z,102408.75
2022-11-29T22:39:51.088Z,102404.47
2022-11-29T22:42:25.504Z,102412.88
2022-11-29T22:44:54.795Z,102425.38
2022-11-29T22:47:31.190Z,102422.66
2022-11-29T22:50:06.052Z,102424.81
2022-11-29T22:52:40.401Z,102429.63
2022-11-29T22:55:10.569Z,102429.09
2022-11-29T22:57:40.179Z,102391.78
2022-11-29T23:00:13.179Z,102436.25
2022-11-29T23:02:42.211Z,102438.56
2022-11-29T23:05:13.381Z,102446.06
2022-11-29T23:07:42.787Z,102447.13
2022-11-29T23:10:12.875Z,102437.16
2022-11-29T23:12:42.132Z,102448.03
2022-11-29T23:15:12.019Z,102445.72
2022-11-29T23:17:41.174Z,102408.00
2022-11-29T23:20:13.903Z,102446.06
2022-11-29T23:22:43.248Z,102447.66
2022-11-29T23:25:12.437Z,102451.03
2022-11-29T23:27:42.056Z,102378.88
2022-11-29T23:30:12.236Z,102434.81
2022-11-29T23:32:41.472Z,102440.16
2022-11-29T23:35:11.157Z,102438.34
2022-11-29T23:37:42.315Z,102434.44
2022-11-29T23:40:12.704Z,102442.31
2022-11-29T23:42:46.459Z,102437.31
2022-11-29T23:45:16.662Z,102443.53
2022-11-29T23:47:45.759Z,102432.28
2022-11-29T23:50:14.997Z,102429.28
2022-11-29T23:52:45.993Z,102435.66
2022-11-29T23:55:16.622Z,102438.34
2022-11-29T23:57:49.630Z,102423.53
